createdAt,value
2022-08-07T00:02:40.589Z,78.70
2022-08-07T00:05:01.261Z,78.68
2022-08-07T00:07:40.138Z,78.75
2022-08-07T00:10:26.558Z,78.94
2022-08-07T00:12:59.781Z,79.13
2022-08-07T00:15:38.096Z,79.34
2022-08-07T00:18:24.283Z,79.50
2022-08-07T00:20:56.815Z,79.53
2022-08-07T00:23:28.283Z,79.88
2022-08-07T00:26:00.100Z,80.00
2022-08-07T00:28:33.152Z,80.13
2022-08-07T00:31:12.760Z,80.22
2022-08-07T00:33:47.395Z,80.27
2022-08-07T00:36:16.811Z,80.47
2022-08-07T00:38:45.291Z,80.46
2022-08-07T00:41:14.696Z,80.38
2022-08-07T00:44:01.847Z,80.50
2022-08-07T00:46:33.104Z,80.60
2022-08-07T00:49:03.391Z,80.74
2022-08-07T00:51:58.285Z,80.80
2022-08-07T00:54:20.504Z,80.77
2022-08-07T00:56:51.614Z,80.71
2022-08-07T00:59:20.002Z,80.93
2022-08-07T01:02:02.839Z,80.94
2022-08-07T01:04:37.430Z,81.04
2022-08-07T01:07:13.851Z,81.23
2022-08-07T01:10:06.066Z,81.25
2022-08-07T01:12:31.211Z,81.43
2022-08-07T01:18:17.709Z,81.67
2022-08-07T01:21:22.655Z,81.64
2022-08-07T01:23:53.976Z,81.64
2022-08-07T01:26:23.379Z,81.77
2022-08-07T01:28:55.529Z,81.96
2022-08-07T01:31:41.810Z,81.81
2022-08-07T01:34:14.573Z,81.94
2022-08-07T01:36:52.485Z,81.94
2022-08-07T01:39:39.585Z,82.18
2022-08-07T01:42:37.697Z,82.29
2022-08-07T01:45:17.786Z,82.05
2022-08-07T01:48:18.139Z,82.49
2022-08-07T01:50:40.304Z,82.45
2022-08-07T01:53:20.866Z,82.64
2022-08-07T01:56:03.817Z,82.70
2022-08-07T01:58:41.102Z,82.58
2022-08-07T02:01:59.457Z,82.77
2022-08-07T02:04:26.674Z,82.78
2022-08-07T02:07:01.839Z,82.88
2022-08-07T02:09:33.809Z,82.73
2022-08-07T02:12:29.419Z,82.83
2022-08-07T02:15:06.725Z,83.09
2022-08-07T02:17:49.821Z,83.15
2022-08-07T02:20:23.864Z,83.24
2022-08-07T02:23:04.257Z,83.34
2022-08-07T02:26:26.721Z,83.36
2022-08-07T02:28:27.625Z,83.38
2022-08-07T02:31:19.017Z,83.53
2022-08-07T02:34:01.857Z,83.66
2022-08-07T02:36:34.777Z,83.75
2022-08-07T02:39:17.490Z,83.97
2022-08-07T02:42:10.207Z,84.03
2022-08-07T02:44:48.158Z,84.02
2022-08-07T02:47:23.719Z,83.91
2022-08-07T02:49:59.083Z,83.80
2022-08-07T02:52:50.763Z,84.09
2022-08-07T02:55:28.263Z,84.10
2022-08-07T02:58:21.653Z,84.18
2022-08-07T03:00:52.874Z,84.19
2022-08-07T03:03:23.659Z,84.30
2022-08-07T03:05:56.502Z,84.53
2022-08-07T03:08:26.869Z,84.36
2022-08-07T03:10:59.312Z,84.40
2022-08-07T03:13:38.685Z,84.37
2022-08-07T03:16:07.831Z,84.47
2022-08-07T03:18:36.427Z,84.60
2022-08-07T03:21:08.547Z,84.85
2022-08-07T03:24:20.932Z,85.00
2022-08-07T03:26:33.751Z,84.99
2022-08-07T03:29:11.308Z,85.05
2022-08-07T03:31:50.031Z,85.17
2022-08-07T03:34:22.389Z,85.21
2022-08-07T03:36:57.350Z,85.16
2022-08-07T03:39:46.437Z,84.89
2022-08-07T03:42:18.951Z,85.05
2022-08-07T03:44:53.545Z,85.11
2022-08-07T03:47:28.029Z,85.03
2022-08-07T03:49:58.923Z,85.02
2022-08-07T03:52:32.322Z,85.04
2022-08-07T03:55:07.405Z,85.22
2022-08-07T03:58:34.295Z,85.16
2022-08-07T04:00:33.868Z,85.03
2022-08-07T04:03:05.984Z,84.90
2022-08-07T04:05:42.201Z,84.75
2022-08-07T04:08:21.206Z,84.44
2022-08-07T04:10:54.459Z,84.20
2022-08-07T04:14:10.727Z,84.29
2022-08-07T04:16:32.163Z,84.13
2022-08-07T04:19:12.805Z,83.98
2022-08-07T04:21:58.922Z,83.67
2022-08-07T04:24:38.858Z,83.39
2022-08-07T04:27:20.246Z,83.00
2022-08-07T04:30:02.152Z,82.71
2022-08-07T04:32:44.973Z,82.43
2022-08-07T04:35:16.932Z,82.01
2022-08-07T04:38:02.795Z,81.51
2022-08-07T04:40:34.452Z,81.15
2022-08-07T04:43:03.533Z,80.80
2022-08-07T04:45:57.257Z,79.15
2022-08-07T04:48:38.219Z,76.83
2022-08-07T04:51:27.349Z,75.04
2022-08-07T04:54:12.242Z,72.48
2022-08-07T04:58:14.294Z,69.94
2022-08-07T05:00:09.666Z,67.54
2022-08-07T05:02:43.518Z,65.21
2022-08-07T05:05:52.887Z,62.92
2022-08-07T05:08:59.225Z,60.97
2022-08-07T05:11:57.639Z,59.05
2022-08-07T05:14:56.349Z,56.95
2022-08-07T05:17:52.262Z,55.96
2022-08-07T05:20:17.326Z,54.67
2022-08-07T05:22:49.860Z,52.77
2022-08-07T05:25:36.742Z,52.12
2022-08-07T05:28:20.141Z,52.02
2022-08-07T05:30:54.549Z,52.06
2022-08-07T05:33:24.068Z,51.83
2022-08-07T05:35:55.497Z,50.97
2022-08-07T05:38:58.373Z,50.00
2022-08-07T05:41:15.820Z,49.60
2022-08-07T05:44:07.739Z,49.28
2022-08-07T05:46:38.737Z,48.94
2022-08-07T05:49:12.409Z,48.18
2022-08-07T05:51:46.510Z,47.04
2022-08-07T05:54:31.055Z,46.79
2022-08-07T05:57:09.918Z,47.32
2022-08-07T05:59:57.178Z,47.83
2022-08-07T06:02:35.829Z,47.28
2022-08-07T06:05:15.844Z,47.62
2022-08-07T06:08:29.404Z,48.23
2022-08-07T06:10:39.298Z,49.18
2022-08-07T06:13:13.429Z,49.61
2022-08-07T06:15:46.047Z,48.88
2022-08-07T06:18:23.109Z,48.17
2022-08-07T06:22:11.787Z,47.80
2022-08-07T06:24:37.160Z,47.13
2022-08-07T06:26:32.872Z,46.80
2022-08-07T06:29:04.201Z,46.57
2022-08-07T06:31:46.516Z,46.25
2022-08-07T06:34:20.581Z,46.51
2022-08-07T06:36:51.817Z,46.26
2022-08-07T06:40:17.162Z,45.59
2022-08-07T06:42:34.933Z,45.25
2022-08-07T06:45:18.446Z,45.93
2022-08-07T06:47:58.631Z,46.27
2022-08-07T06:50:43.219Z,46.55
2022-08-07T06:54:12.169Z,47.20
2022-08-07T06:56:07.480Z,47.74
2022-08-07T07:00:14.999Z,48.29
2022-08-07T07:01:44.132Z,49.72
2022-08-07T07:04:32.389Z,50.06
2022-08-07T07:07:10.404Z,50.33
2022-08-07T07:09:50.824Z,50.97
2022-08-07T07:12:48.729Z,51.95
2022-08-07T07:15:26.070Z,51.79
2022-08-07T07:18:05.591Z,52.77
2022-08-07T07:20:37.843Z,53.10
2022-08-07T07:24:06.133Z,53.40
2022-08-07T07:26:35.841Z,53.05
2022-08-07T07:29:39.918Z,53.65
2022-08-07T07:31:55.759Z,54.05
2022-08-07T07:34:31.218Z,54.66
2022-08-07T07:37:14.254Z,55.31
2022-08-07T07:39:54.261Z,54.89
2022-08-07T07:42:32.885Z,54.66
2022-08-07T07:45:06.555Z,54.65
2022-08-07T07:47:51.956Z,54.90
2022-08-07T07:50:35.219Z,55.14
2022-08-07T07:53:20.560Z,55.67
2022-08-07T07:56:00.792Z,55.69
2022-08-07T07:58:40.285Z,55.11
2022-08-07T08:02:03.811Z,55.49
2022-08-07T08:04:10.512Z,56.03
2022-08-07T08:06:50.895Z,54.86
2022-08-07T08:09:29.157Z,54.31
2022-08-07T08:12:03.927Z,53.56
2022-08-07T08:14:36.336Z,53.38
2022-08-07T08:17:55.283Z,53.21
2022-08-07T08:20:23.212Z,52.94
2022-08-07T08:23:15.851Z,52.79
2022-08-07T08:26:07.133Z,52.51
2022-08-07T08:28:43.462Z,52.38
2022-08-07T08:31:22.744Z,52.58
2022-08-07T08:34:00.871Z,52.89
2022-08-07T08:36:33.718Z,53.07
2022-08-07T08:39:03.945Z,53.17
2022-08-07T08:41:57.733Z,53.39
2022-08-07T08:44:33.281Z,53.53
2022-08-07T08:47:47.408Z,52.96
2022-08-07T08:50:39.158Z,53.60
2022-08-07T08:53:16.733Z,53.17
2022-08-07T08:55:58.799Z,53.24
2022-08-07T08:58:40.147Z,53.50
2022-08-07T09:01:19.483Z,53.73
2022-08-07T09:04:25.922Z,54.01
2022-08-07T09:07:26.387Z,53.40
2022-08-07T09:10:15.401Z,53.09
2022-08-07T09:12:59.819Z,52.87
2022-08-07T09:16:24.812Z,52.48
2022-08-07T09:19:51.716Z,51.92
2022-08-07T09:24:33.794Z,51.72
2022-08-07T09:25:26.097Z,51.38
2022-08-07T09:30:01.863Z,50.55
2022-08-07T09:31:08.394Z,50.47
2022-08-07T09:33:57.514Z,50.30
2022-08-07T09:36:37.519Z,49.20
2022-08-07T09:39:55.523Z,48.31
2022-08-07T09:42:44.065Z,48.00
2022-08-07T09:47:51.294Z,48.09
2022-08-07T09:50:01.117Z,47.85
2022-08-07T09:52:10.428Z,47.43
2022-08-07T09:54:47.163Z,47.92
2022-08-07T09:57:46.698Z,48.01
2022-08-07T10:00:20.414Z,47.39
2022-08-07T10:03:08.068Z,46.85
2022-08-07T10:06:25.162Z,46.51
2022-08-07T10:09:59.191Z,46.42
2022-08-07T10:12:53.321Z,46.60
2022-08-07T10:15:47.539Z,46.62
2022-08-07T10:18:45.166Z,46.77
2022-08-07T10:22:12.021Z,46.28
2022-08-07T10:24:31.077Z,45.84
2022-08-07T10:27:45.867Z,45.74
2022-08-07T10:30:27.480Z,46.21
2022-08-07T10:33:15.029Z,46.44
2022-08-07T10:36:10.846Z,46.61
2022-08-07T10:39:06.209Z,46.74
2022-08-07T10:41:51.924Z,47.01
2022-08-07T10:44:28.678Z,47.90
2022-08-07T10:47:27.206Z,48.29
2022-08-07T10:50:29.236Z,48.25
2022-08-07T10:53:21.568Z,48.74
2022-08-07T10:56:05.386Z,48.94
2022-08-07T10:58:46.046Z,48.79
2022-08-07T11:02:12.357Z,48.98
2022-08-07T11:05:10.747Z,49.44
2022-08-07T11:07:58.784Z,49.17
2022-08-07T11:10:41.058Z,49.40
2022-08-07T11:14:44.810Z,49.60
2022-08-07T11:16:34.376Z,49.38
2022-08-07T11:19:21.352Z,50.42
2022-08-07T11:22:37.246Z,50.06
2022-08-07T11:25:22.060Z,49.63
2022-08-07T11:28:17.561Z,49.55
2022-08-07T11:30:55.984Z,49.79
2022-08-07T11:33:58.782Z,50.12
2022-08-07T11:36:38.302Z,49.89
2022-08-07T11:39:20.738Z,50.33
2022-08-07T11:42:03.211Z,51.04
2022-08-07T11:44:57.702Z,51.05
2022-08-07T11:47:59.049Z,51.06
2022-08-07T11:50:57.603Z,51.01
2022-08-07T11:54:02.670Z,51.30
2022-08-07T11:56:41.404Z,51.64
2022-08-07T12:00:11.952Z,51.63
2022-08-07T12:02:52.181Z,51.60
2022-08-07T12:05:59.583Z,51.80
2022-08-07T12:08:34.946Z,51.85
2022-08-07T12:11:20.380Z,51.48
2022-08-07T12:13:49.555Z,51.25
2022-08-07T12:16:30.264Z,51.46
2022-08-07T12:19:14.626Z,51.65
2022-08-07T12:22:37.988Z,52.06
2022-08-07T12:26:03.337Z,51.95
2022-08-07T12:28:53.928Z,51.64
2022-08-07T12:31:53.304Z,51.37
2022-08-07T12:34:28.336Z,51.31
2022-08-07T12:36:59.814Z,51.46
2022-08-07T12:39:44.377Z,51.55
2022-08-07T12:42:27.605Z,51.45
2022-08-07T12:45:06.448Z,51.48
2022-08-07T12:47:46.130Z,51.55
2022-08-07T12:50:38.420Z,51.86
2022-08-07T12:54:03.241Z,52.07
2022-08-07T12:56:51.354Z,52.33
2022-08-07T12:59:33.333Z,52.52
2022-08-07T13:02:32.993Z,52.44
2022-08-07T13:06:02.758Z,52.06
2022-08-07T13:08:27.854Z,51.57
2022-08-07T13:11:09.267Z,52.06
2022-08-07T13:14:07.499Z,52.19
2022-08-07T13:16:46.847Z,51.96
2022-08-07T13:19:45.808Z,51.88
2022-08-07T13:22:38.067Z,51.97
2022-08-07T13:25:24.154Z,52.18
2022-08-07T13:28:11.178Z,51.84
2022-08-07T13:31:13.168Z,51.62
2022-08-07T13:34:32.788Z,51.45
2022-08-07T13:36:45.296Z,51.48
2022-08-07T13:39:49.354Z,51.46
2022-08-07T13:42:10.485Z,51.44
2022-08-07T13:44:40.583Z,51.21
2022-08-07T13:47:15.162Z,50.87
2022-08-07T13:50:33.596Z,50.59
2022-08-07T13:52:41.409Z,50.66
2022-08-07T13:55:19.556Z,50.74
2022-08-07T13:58:31.573Z,50.69
2022-08-07T14:01:09.080Z,50.92
2022-08-07T14:04:06.873Z,50.75
2022-08-07T14:06:34.673Z,50.90
2022-08-07T14:09:05.116Z,50.77
2022-08-07T14:12:00.311Z,50.90
2022-08-07T14:14:56.425Z,51.21
2022-08-07T14:18:12.514Z,51.39
2022-08-07T14:20:39.998Z,51.38
2022-08-07T14:23:31.675Z,51.57
2022-08-07T14:30:05.395Z,51.77
2022-08-07T14:32:02.576Z,51.57
2022-08-07T14:34:33.636Z,51.56
2022-08-07T14:37:03.674Z,51.38
2022-08-07T14:40:19.724Z,51.03
2022-08-07T14:42:32.511Z,50.98
2022-08-07T14:45:20.865Z,50.85
2022-08-07T14:47:59.028Z,50.98
2022-08-07T14:50:31.630Z,51.27
2022-08-07T14:53:09.834Z,51.41
2022-08-07T14:55:56.226Z,51.50
2022-08-07T14:58:31.633Z,51.40
2022-08-07T15:03:53.509Z,51.61
2022-08-07T15:06:28.101Z,51.30
2022-08-07T15:09:59.293Z,50.90
2022-08-07T15:12:01.563Z,50.64
2022-08-07T15:14:32.783Z,50.66
2022-08-07T15:17:05.472Z,50.47
2022-08-07T15:20:33.046Z,50.28
2022-08-07T15:22:53.970Z,50.84
2022-08-07T15:25:36.812Z,50.83
2022-08-07T15:28:36.173Z,50.68
2022-08-07T15:31:05.256Z,50.78
2022-08-07T15:33:58.442Z,51.03
2022-08-07T15:37:03.771Z,51.31
2022-08-07T15:39:16.838Z,51.38
2022-08-07T15:42:43.485Z,51.70
2022-08-07T15:44:56.087Z,51.88
2022-08-07T15:47:59.951Z,51.83
2022-08-07T15:50:37.964Z,51.97
2022-08-07T15:53:52.334Z,51.99
2022-08-07T15:56:24.938Z,51.91
2022-08-07T15:58:55.460Z,52.19
2022-08-07T16:01:38.617Z,52.02
2022-08-07T16:04:14.796Z,52.04
2022-08-07T16:06:56.229Z,52.17
2022-08-07T16:09:52.153Z,52.32
2022-08-07T16:12:38.059Z,52.39
2022-08-07T16:15:42.158Z,52.74
2022-08-07T16:18:10.231Z,53.02
2022-08-07T16:20:55.221Z,53.07
2022-08-07T16:23:58.603Z,53.08
2022-08-07T16:27:05.853Z,53.23
2022-08-07T16:30:30.116Z,53.45
2022-08-07T16:34:03.256Z,53.62
2022-08-07T16:36:31.286Z,54.09
2022-08-07T16:39:33.448Z,54.46
2022-08-07T16:42:06.647Z,54.78
2022-08-07T16:46:21.280Z,54.81
2022-08-07T16:48:09.304Z,55.10
2022-08-07T16:51:20.348Z,55.05
2022-08-07T16:54:33.107Z,55.31
2022-08-07T16:58:02.015Z,55.24
2022-08-07T17:00:16.071Z,55.29
2022-08-07T17:03:59.827Z,55.41
2022-08-07T17:06:50.196Z,55.50
2022-08-07T17:10:06.421Z,55.53
2022-08-07T17:12:38.837Z,55.83
2022-08-07T17:15:44.351Z,56.03
2022-08-07T17:18:28.537Z,56.12
2022-08-07T17:20:56.651Z,56.36
2022-08-07T17:23:56.253Z,56.64
2022-08-07T17:26:35.835Z,56.63
2022-08-07T17:30:16.192Z,56.92
2022-08-07T17:32:52.087Z,57.04
2022-08-07T17:35:51.436Z,57.28
2022-08-07T17:38:33.299Z,57.58
2022-08-07T17:42:02.086Z,57.72
2022-08-07T17:44:33.256Z,57.93
2022-08-07T17:47:16.762Z,58.29
2022-08-07T17:49:56.593Z,58.52
2022-08-07T17:52:32.826Z,58.70
2022-08-07T17:55:06.303Z,58.87
2022-08-07T17:57:58.665Z,59.28
2022-08-07T18:00:49.087Z,59.59
2022-08-07T18:04:04.403Z,59.71
2022-08-07T18:06:38.175Z,59.87
2022-08-07T18:09:08.547Z,60.16
2022-08-07T18:12:17.523Z,60.46
2022-08-07T18:15:08.410Z,60.64
2022-08-07T18:18:33.105Z,60.84
2022-08-07T18:21:12.639Z,60.85
2022-08-07T18:23:57.181Z,60.97
2022-08-07T18:27:10.970Z,61.22
2022-08-07T18:30:05.226Z,61.29
2022-08-07T18:33:15.107Z,61.57
2022-08-07T18:36:01.710Z,61.80
2022-08-07T18:38:55.037Z,62.08
2022-08-07T18:41:44.832Z,62.27
2022-08-07T18:45:39.905Z,62.57
2022-08-07T18:47:45.020Z,63.03
2022-08-07T18:50:47.255Z,63.33
2022-08-07T18:53:46.317Z,63.57
2022-08-07T18:56:30.869Z,63.86
2022-08-07T18:59:06.057Z,64.07
2022-08-07T19:01:58.921Z,64.45
2022-08-07T19:05:14.982Z,64.68
2022-08-07T19:08:07.446Z,64.97
2022-08-07T19:10:55.506Z,65.24
2022-08-07T19:13:49.953Z,65.69
2022-08-07T19:17:00.748Z,66.07
2022-08-07T19:19:46.362Z,66.38
2022-08-07T19:22:31.305Z,66.64
2022-08-07T19:25:05.713Z,66.81
2022-08-07T19:28:29.555Z,66.88
2022-08-07T19:31:06.452Z,67.08
2022-08-07T19:33:34.601Z,67.41
2022-08-07T19:36:05.160Z,67.53
2022-08-07T19:38:53.178Z,67.59
2022-08-07T19:41:44.476Z,67.86
2022-08-07T19:44:21.389Z,68.07
2022-08-07T19:46:57.778Z,68.16
2022-08-07T19:49:58.169Z,68.12
2022-08-07T19:52:18.878Z,68.13
2022-08-07T19:54:56.573Z,68.04
2022-08-07T19:57:59.905Z,68.19
2022-08-07T20:00:29.339Z,68.22
2022-08-07T20:03:03.825Z,68.18
2022-08-07T20:05:37.912Z,68.15
2022-08-07T20:08:27.972Z,68.02
2022-08-07T20:11:01.835Z,68.06
2022-08-07T20:13:41.810Z,68.09
2022-08-07T20:16:32.365Z,68.10
2022-08-07T20:19:05.440Z,68.12
2022-08-07T20:21:42.171Z,68.05
2022-08-07T20:24:22.127Z,68.10
2022-08-07T20:26:54.441Z,68.37
2022-08-07T20:29:48.180Z,68.53
2022-08-07T20:32:22.605Z,68.62
2022-08-07T20:35:09.021Z,68.56
2022-08-07T20:37:55.213Z,68.59
2022-08-07T20:40:33.250Z,68.68
2022-08-07T20:43:14.560Z,68.87
2022-08-07T20:46:26.044Z,69.03
2022-08-07T20:48:57.983Z,69.34
2022-08-07T20:51:35.875Z,69.48
2022-08-07T20:54:12.137Z,69.69
2022-08-07T20:56:50.121Z,69.99
2022-08-07T21:00:05.593Z,70.27
2022-08-07T21:02:38.422Z,70.63
2022-08-07T21:05:16.180Z,71.06
2022-08-07T21:07:49.781Z,71.38
2022-08-07T21:10:25.206Z,71.48
2022-08-07T21:13:03.692Z,71.84
2022-08-07T21:15:47.478Z,71.88
2022-08-07T21:18:27.905Z,72.30
2022-08-07T21:20:59.389Z,72.36
2022-08-07T21:23:49.302Z,72.66
2022-08-07T21:26:52.877Z,72.85
2022-08-07T21:29:30.647Z,72.75
2022-08-07T21:33:00.167Z,72.96
2022-08-07T21:36:05.928Z,73.31
2022-08-07T21:38:49.733Z,73.38
2022-08-07T21:41:52.222Z,73.60
2022-08-07T21:44:44.864Z,73.59
2022-08-07T21:47:37.961Z,73.79
2022-08-07T21:50:17.335Z,74.20
2022-08-07T21:53:26.737Z,74.49
2022-08-07T21:56:37.819Z,74.78
2022-08-07T22:00:02.976Z,75.03
2022-08-07T22:02:45.031Z,75.55
2022-08-07T22:05:22.138Z,76.04
2022-08-07T22:08:10.274Z,76.46
2022-08-07T22:10:42.481Z,76.62
2022-08-07T22:13:14.531Z,76.83
2022-08-07T22:16:40.143Z,76.97
2022-08-07T22:18:47.221Z,77.28
2022-08-07T22:22:02.126Z,77.50
2022-08-07T22:24:21.408Z,77.78
2022-08-07T22:27:04.264Z,78.01
2022-08-07T22:30:01.146Z,78.07
2022-08-07T22:32:55.869Z,78.12
2022-08-07T22:35:39.622Z,78.28
2022-08-07T22:38:37.079Z,78.30
2022-08-07T22:41:22.415Z,78.23
2022-08-07T22:44:18.580Z,78.36
2022-08-07T22:47:04.204Z,78.33
2022-08-07T22:49:54.952Z,78.30
2022-08-07T22:52:52.417Z,78.32
2022-08-07T22:55:45.440Z,78.35
2022-08-07T22:58:34.786Z,78.22
2022-08-07T23:01:27.402Z,78.12
2022-08-07T23:04:56.869Z,78.16
2022-08-07T23:07:42.174Z,78.00
2022-08-07T23:10:38.429Z,77.77
2022-08-07T23:13:29.071Z,77.81
2022-08-07T23:16:43.308Z,77.86
2022-08-07T23:19:48.403Z,77.84
2022-08-07T23:22:32.798Z,77.87
2022-08-07T23:25:31.649Z,77.83
2022-08-07T23:28:22.948Z,77.99
2022-08-07T23:31:11.183Z,78.08
2022-08-07T23:34:35.327Z,78.51
2022-08-07T23:37:20.155Z,78.61
2022-08-07T23:39:55.599Z,78.68
2022-08-07T23:42:23.903Z,78.93
2022-08-07T23:45:03.744Z,78.79
2022-08-07T23:48:02.860Z,78.95
2022-08-07T23:50:45.409Z,79.32
2022-08-07T23:53:51.548Z,79.46
2022-08-07T23:56:31.362Z,80.01
2022-08-07T23:59:10.828Z,80.15
